Time;durP1;ratioP1;P1;durP2;ratioP2;P2;SDS_P1;SDS_P2;PMS_P1;PMS_P2;Temp;Humidity;BMP_temperature;BMP_pressure;BME280_temperature;BME280_humidity;BME280_pressure;Samples;Min_cycle;Max_cycle;Signal;HPM_P1;HPM_P2
2022/02/08 00:00:19;;;;;;;5.43;3.90;;;;;;;3.60;100.00;97664.44;4960775;28;20504;-55
2022/02/08 00:02:51;;;;;;;4.43;3.80;;;;;;;3.61;100.00;97670.50;4961523;28;20087;-54
2022/02/08 00:05:21;;;;;;;6.13;3.78;;;;;;;3.66;100.00;97666.75;4967252;28;20082;-54
2022/02/08 00:07:52;;;;;;;6.70;3.90;;;;;;;3.62;100.00;97667.81;4963428;28;20458;-56
2022/02/08 00:10:20;;;;;;;7.85;4.55;;;;;;;3.57;100.00;97670.63;4951530;28;20058;-54
2022/02/08 00:12:48;;;;;;;6.95;4.28;;;;;;;3.61;100.00;97663.50;4956138;28;20804;-54
2022/02/08 00:15:17;;;;;;;5.10;3.60;;;;;;;3.55;100.00;97667.25;4965971;28;20541;-52
2022/02/08 00:17:47;;;;;;;3.72;3.40;;;;;;;3.55;100.00;97666.41;4962905;28;20078;-55
2022/02/08 00:20:16;;;;;;;6.72;4.15;;;;;;;3.44;100.00;97672.13;4969624;28;20070;-57
2022/02/08 00:22:44;;;;;;;5.00;3.90;;;;;;;3.55;100.00;97677.69;4965039;28;20101;-60
2022/02/08 00:25:12;;;;;;;8.38;3.78;;;;;;;3.47;100.00;97673.72;4965497;28;20058;-57
2022/02/08 00:27:41;;;;;;;6.00;3.88;;;;;;;3.61;100.00;97680.91;4969507;28;20074;-52
2022/02/08 00:30:10;;;;;;;3.95;3.63;;;;;;;3.62;100.00;97675.66;4967287;28;20070;-52
2022/02/08 00:32:39;;;;;;;4.80;4.15;;;;;;;3.38;100.00;97680.22;4965885;28;20140;-58
2022/02/08 00:35:09;;;;;;;7.80;4.50;;;;;;;3.41;100.00;97679.25;4962037;28;22702;-56
2022/02/08 00:37:37;;;;;;;8.75;4.45;;;;;;;3.52;100.00;97682.22;4963209;28;20593;-56
2022/02/08 00:40:07;;;;;;;6.20;4.10;;;;;;;3.39;100.00;97671.50;4964410;28;20175;-57
2022/02/08 00:42:36;;;;;;;7.85;4.57;;;;;;;3.40;100.00;97673.16;4964858;28;20473;-57
2022/02/08 00:45:18;;;;;;;5.13;3.90;;;;;;;3.18;100.00;97673.31;4963571;28;20101;-57
2022/02/08 00:47:52;;;;;;;6.85;4.13;;;;;;;3.38;100.00;97685.44;4964113;28;20560;-54
2022/02/08 00:50:22;;;;;;;4.88;3.92;;;;;;;3.29;100.00;97697.13;4964808;28;20086;-56
2022/02/08 00:52:50;;;;;;;4.82;4.18;;;;;;;2.96;100.00;97694.28;4962557;28;20077;-59
2022/02/08 00:55:19;;;;;;;9.82;4.10;;;;;;;3.01;100.00;97691.47;4971638;28;20070;-60
2022/02/08 00:57:47;;;;;;;5.38;4.28;;;;;;;3.08;100.00;97693.72;4965872;28;20073;-54
2022/02/08 01:00:16;;;;;;;5.88;4.05;;;;;;;3.02;100.00;97694.00;4963433;28;20074;-57
2022/02/08 01:02:44;;;;;;;9.38;4.53;;;;;;;2.85;100.00;97693.88;4962632;28;20093;-59
2022/02/08 01:05:15;;;;;;;7.00;4.22;;;;;;;2.89;100.00;97697.19;4965870;28;20082;-56
2022/02/08 01:07:45;;;;;;;6.78;4.35;;;;;;;2.80;100.00;97698.47;4964614;28;20074;-58
2022/02/08 01:10:17;;;;;;;4.68;3.85;;;;;;;2.68;100.00;97693.75;4965114;28;20066;-53
2022/02/08 01:12:47;;;;;;;4.80;3.80;;;;;;;2.63;100.00;97700.94;4964731;28;20116;-54
2022/02/08 01:15:16;;;;;;;;;;;;;;;2.59;100.00;97700.22;4965576;28;20453;-52
2022/02/08 01:17:47;;;;;;;6.38;5.03;;;;;;;2.77;100.00;97702.03;4963776;28;20381;-58
2022/02/08 01:20:19;;;;;;;;;;;;;;;2.41;100.00;97699.25;4948301;28;20083;-58
2022/02/08 01:22:49;;;;;;;12.02;4.65;;;;;;;2.57;100.00;97707.25;4961345;28;19962;-57
2022/02/08 01:25:27;;;;;;;9.90;5.22;;;;;;;2.45;100.00;97700.81;4964868;28;20081;-55
2022/02/08 01:28:00;;;;;;;6.68;4.43;;;;;;;2.43;100.00;97701.78;4965675;28;20318;-53
2022/02/08 01:30:39;;;;;;;5.57;4.25;;;;;;;2.34;100.00;97709.06;4965864;28;20078;-54
2022/02/08 01:36:08;;;;;;;5.75;4.47;;;;;;;2.30;100.00;97715.28;4963245;28;20070;-53
2022/02/08 01:38:39;;;;;;;4.50;4.20;;;;;;;2.18;100.00;97714.94;4948919;28;20570;-53
2022/02/08 01:41:25;;;;;;;7.82;4.20;;;;;;;2.22;100.00;97713.91;4964525;28;20206;-57
2022/02/08 01:44:11;;;;;;;4.82;4.20;;;;;;;2.26;100.00;97712.88;4964307;28;20078;-55
2022/02/08 01:46:55;;;;;;;6.43;4.25;;;;;;;2.34;100.00;97706.47;4962871;28;20058;-54
2022/02/08 01:49:37;;;;;;;8.68;4.78;;;;;;;2.32;100.00;97713.47;4963093;28;20470;-58
2022/02/08 01:52:07;;;;;;;7.10;4.75;;;;;;;2.19;100.00;97712.28;4963290;28;20077;-59
2022/02/08 01:54:37;;;;;;;5.00;4.50;;;;;;;2.28;100.00;97711.06;4966282;28;20152;-54
2022/02/08 01:57:06;;;;;;;12.00;5.28;;;;;;;2.26;100.00;97708.50;4964178;28;20082;-57
2022/02/08 01:59:34;;;;;;;5.88;4.32;;;;;;;2.21;100.00;97715.69;4966883;28;20089;-56
2022/02/08 02:02:03;;;;;;;5.97;4.60;;;;;;;2.32;100.00;97712.63;4964325;28;20127;-56
2022/02/08 02:04:31;;;;;;;7.40;5.07;;;;;;;2.61;100.00;97709.66;4965510;28;20066;-51
2022/02/08 02:07:01;;;;;;;9.38;4.85;;;;;;;2.52;100.00;97701.41;4966029;28;20070;-54
2022/02/08 02:09:30;;;;;;;4.43;4.03;;;;;;;2.47;100.00;97706.78;4965692;28;20074;-57
2022/02/08 02:11:59;;;;;;;4.70;4.30;;;;;;;2.60;100.00;97697.53;4967280;28;20086;-56
2022/02/08 02:14:28;;;;;;;8.48;4.40;;;;;;;2.43;100.00;97694.81;4970438;28;20082;-54
2022/02/08 02:16:59;;;;;;;6.50;4.43;;;;;;;2.68;100.00;97696.38;4961999;28;20070;-57
2022/02/08 02:19:29;;;;;;;8.80;4.60;;;;;;;2.58;100.00;97691.56;4969392;28;20477;-53
2022/02/08 02:21:58;;;;;;;;;;;;;;;2.47;100.00;97685.94;4969967;28;20066;-53
2022/02/08 02:24:28;;;;;;;4.35;3.95;;;;;;;2.59;100.00;97689.81;4967069;28;19960;-52
2022/02/08 02:26:58;;;;;;;8.02;4.53;;;;;;;2.76;100.00;97689.09;4967190;28;20082;-52
2022/02/08 02:29:29;;;;;;;;;;;;;;;2.52;100.00;97704.00;4969227;28;20086;-52
2022/02/08 02:31:59;;;;;;;7.88;4.63;;;;;;;2.60;100.00;97705.34;4967078;28;19960;-52
2022/02/08 02:34:28;;;;;;;6.13;4.40;;;;;;;2.71;100.00;97702.28;4966864;28;20467;-54
2022/02/08 02:36:58;;;;;;;5.10;4.50;;;;;;;2.67;100.00;97718.97;4969486;28;20062;-54
2022/02/08 02:39:28;;;;;;;5.82;4.53;;;;;;;2.52;100.00;97710.06;4969575;28;20062;-55
2022/02/08 02:41:57;;;;;;;4.60;4.00;;;;;;;2.51;100.00;97715.31;4966851;28;20093;-51
2022/02/08 02:44:26;;;;;;;10.50;4.57;;;;;;;2.74;100.00;97709.97;4970650;28;20090;-56
2022/02/08 02:46:55;;;;;;;9.37;4.80;;;;;;;2.82;100.00;97707.03;4966831;28;20490;-54
2022/02/08 02:49:27;;;;;;;8.38;4.38;;;;;;;2.83;100.00;97704.38;4966633;28;20077;-51
2022/02/08 02:51:57;;;;;;;6.35;3.95;;;;;;;2.64;100.00;97697.41;4967813;28;20066;-54
2022/02/08 02:54:26;;;;;;;4.28;3.88;;;;;;;2.67;100.00;97695.53;4960610;28;20067;-53
2022/02/08 02:56:59;;;;;;;8.77;4.20;;;;;;;2.73;100.00;97704.84;4950769;28;20172;-55
2022/02/08 02:59:30;;;;;;;8.32;4.28;;;;;;;2.64;100.00;97698.25;4950202;28;20215;-55
2022/02/08 03:04:51;;;;;;;4.15;3.75;;;;;;;2.65;100.00;97699.09;4963553;28;20070;-51
2022/02/08 03:18:37;;;;;;;10.35;4.13;;;;;;;2.52;100.00;97701.41;4964459;28;20063;-52
2022/02/08 03:21:07;;;;;;;4.63;3.90;;;;;;;2.64;100.00;97700.84;4964941;28;20525;-56
2022/02/08 03:23:36;;;;;;;6.17;4.03;;;;;;;2.69;100.00;97709.34;4967209;28;20097;-53
2022/02/08 03:26:06;;;;;;;6.32;4.45;;;;;;;2.86;100.00;97708.63;4964052;28;20555;-54
2022/02/08 03:28:36;;;;;;;6.57;3.80;;;;;;;2.63;100.00;97706.16;4964935;28;20179;-55
2022/02/08 03:31:05;;;;;;;5.80;3.65;;;;;;;2.74;100.00;97709.97;4965951;28;20070;-57
2022/02/08 03:33:33;;;;;;;15.45;4.07;;;;;;;2.76;100.00;97713.38;4962941;28;20078;-52
2022/02/08 03:36:02;;;;;;;7.25;3.58;;;;;;;2.51;100.00;97710.97;4966327;28;20070;-56
2022/02/08 03:38:34;;;;;;;8.05;3.80;;;;;;;2.52;100.00;97704.00;4968180;28;20086;-55
2022/02/08 03:41:06;;;;;;;4.35;3.45;;;;;;;2.46;100.00;97712.91;4965789;28;20070;-51
2022/02/08 03:43:38;;;;;;;6.15;3.85;;;;;;;2.55;100.00;97712.53;4964992;28;20275;-54
2022/02/08 03:46:12;;;;;;;5.65;4.05;;;;;;;2.63;100.00;97711.34;4964056;28;20070;-50
2022/02/08 03:48:43;;;;;;;4.63;3.78;;;;;;;2.72;100.00;97713.56;4955702;28;20082;-52
2022/02/08 03:51:15;;;;;;;4.47;3.83;;;;;;;2.75;100.00;97723.84;4963206;28;20246;-52
2022/02/08 03:53:44;;;;;;;6.72;4.75;;;;;;;2.84;100.00;97715.66;4966326;28;20147;-52
2022/02/08 03:56:16;;;;;;;7.22;3.78;;;;;;;2.82;100.00;97720.94;4967546;28;20335;-55
2022/02/08 03:58:46;;;;;;;7.93;4.00;;;;;;;2.97;100.00;97729.00;4965365;28;20180;-57
2022/02/08 04:01:50;;;;;;;4.55;3.53;;;;;;;2.85;100.00;97715.56;4962967;28;20659;-54
2022/02/08 04:04:31;;;;;;;6.43;4.25;;;;;;;2.88;100.00;97716.34;4962380;28;20081;-57
2022/02/08 04:07:05;;;;;;;5.75;3.95;;;;;;;2.96;100.00;97719.47;4965928;28;20086;-52
2022/02/08 04:09:33;;;;;;;4.07;3.75;;;;;;;2.97;100.00;97719.41;4965146;28;20501;-56
2022/02/08 04:12:05;;;;;;;5.45;3.70;;;;;;;3.04;100.00;97715.63;4965180;28;20074;-56
2022/02/08 04:14:42;;;;;;;6.40;3.97;;;;;;;3.17;100.00;97722.91;4968282;28;20473;-52
2022/02/08 04:17:23;;;;;;;4.85;4.15;;;;;;;3.17;100.00;97717.72;4964127;28;20524;-56
2022/02/08 04:31:18;;;;;;;6.43;4.15;;;;;;;3.24;100.00;97719.97;4965179;28;20086;-56
2022/02/08 04:34:24;;;;;;;4.07;3.65;;;;;;;3.30;100.00;97718.81;4928518;28;20525;-52
2022/02/08 04:39:52;;;;;;;6.03;3.45;;;;;;;3.45;100.00;97735.56;4963403;28;20071;-56
2022/02/08 04:42:27;;;;;;;4.53;3.70;;;;;;;3.29;100.00;97733.63;4963539;28;20073;-54
2022/02/08 04:45:07;;;;;;;6.32;3.80;;;;;;;3.55;100.00;97722.03;4963966;28;20079;-51
2022/02/08 04:47:42;;;;;;;4.60;3.78;;;;;;;3.29;100.00;97711.94;4970319;28;20532;-52
2022/02/08 04:50:13;;;;;;;5.45;3.60;;;;;;;3.33;100.00;97719.53;4963275;28;20260;-56
2022/02/08 04:52:42;;;;;;;4.25;3.70;;;;;;;3.40;100.00;97701.84;4963545;28;20078;-53
2022/02/08 04:55:29;;;;;;;5.03;3.58;;;;;;;3.53;100.00;97704.75;4964839;28;20066;-55
2022/02/08 04:58:13;;;;;;;4.53;3.83;;;;;;;3.47;100.00;97716.31;4964938;28;20035;-49
2022/02/08 05:00:46;;;;;;;4.60;3.40;;;;;;;3.57;100.00;97719.34;4957141;28;20082;-54
2022/02/08 05:42:05;;;;;;;3.85;3.47;;;;;;;3.76;100.00;97706.31;4966811;28;20089;-52
2022/02/08 05:44:39;;;;;;;3.92;3.25;;;;;;;3.88;100.00;97694.44;4968551;28;20082;-47
2022/02/08 05:47:09;;;;;;;7.53;3.45;;;;;;;3.79;100.00;97696.56;4968622;28;21456;-51
2022/02/08 05:49:43;;;;;;;4.25;3.80;;;;;;;3.87;100.00;97698.81;4968303;28;20062;-50
2022/02/08 05:54:58;;;;;;;6.10;3.53;;;;;;;3.73;100.00;97696.84;4967146;28;20067;-55
2022/02/08 05:57:26;;;;;;;9.20;3.38;;;;;;;3.87;100.00;97709.25;4969392;28;20682;-56
2022/02/08 05:59:55;;;;;;;4.97;3.80;;;;;;;3.93;100.00;97706.34;4965955;28;20085;-56
2022/02/08 06:02:23;;;;;;;4.70;3.00;;;;;;;3.79;100.00;97701.78;4970927;28;20105;-51
2022/02/08 06:04:52;;;;;;;4.75;3.83;;;;;;;3.73;100.00;97709.06;4968557;28;20077;-55
2022/02/08 06:07:23;;;;;;;5.07;3.40;;;;;;;3.90;100.00;97698.66;4968690;28;20071;-50
2022/02/08 06:09:54;;;;;;;3.63;3.30;;;;;;;3.94;100.00;97678.50;4969234;28;20069;-51
2022/02/08 06:12:28;;;;;;;3.42;3.20;;;;;;;3.80;100.00;97697.41;4967187;28;20078;-51
2022/02/08 06:14:59;;;;;;;4.60;3.10;;;;;;;3.86;100.00;97706.72;4968563;28;20070;-54
2022/02/08 06:17:28;;;;;;;3.10;2.90;;;;;;;3.89;100.00;97706.56;4971175;28;20089;-57
2022/02/08 06:19:56;;;;;;;3.97;3.55;;;;;;;4.02;100.00;97699.84;4968860;28;20058;-56
2022/02/08 06:22:26;;;;;;;4.85;3.38;;;;;;;4.13;100.00;97705.41;4967968;28;20085;-54
2022/02/08 06:24:55;;;;;;;3.97;3.40;;;;;;;4.00;100.00;97692.09;4968317;28;20074;-55
2022/02/08 06:27:29;;;;;;;3.70;3.40;;;;;;;3.97;100.00;97705.28;4963429;28;20059;-51
2022/02/08 06:29:58;;;;;;;4.10;3.10;;;;;;;3.92;100.00;97709.03;4956264;28;20074;-56
2022/02/08 06:32:28;;;;;;;4.20;3.30;;;;;;;4.07;100.00;97710.91;4974869;28;20074;-56
2022/02/08 06:34:58;;;;;;;4.00;3.60;;;;;;;3.98;100.00;97716.56;4970712;28;20074;-54
2022/02/08 06:37:31;;;;;;;3.90;3.17;;;;;;;4.02;100.00;97708.50;4971577;28;20077;-51
2022/02/08 06:40:00;;;;;;;4.03;3.40;;;;;;;4.21;100.00;97700.66;4978550;28;20449;-50
2022/02/08 06:42:28;;;;;;;6.70;3.58;;;;;;;4.25;100.00;97714.41;4972772;28;20065;-49
2022/02/08 06:44:58;;;;;;;3.45;3.15;;;;;;;4.23;100.00;97709.25;4972646;28;20091;-52
2022/02/08 06:47:26;;;;;;;4.53;3.13;;;;;;;4.24;100.00;97720.56;4971478;28;20545;-51
2022/02/08 06:49:55;;;;;;;3.78;3.03;;;;;;;4.24;100.00;97707.50;4972608;28;20062;-54
2022/02/08 06:52:23;;;;;;;5.65;3.30;;;;;;;4.09;100.00;97716.03;4971370;28;20469;-53
2022/02/08 06:54:53;;;;;;;4.80;2.92;;;;;;;4.02;100.00;97692.84;4973868;28;20093;-52
2022/02/08 06:57:22;;;;;;;9.80;3.20;;;;;;;4.08;100.00;97711.75;4977720;28;20712;-48
2022/02/08 06:59:53;;;;;;;4.80;2.70;;;;;;;4.19;100.00;97720.75;4970007;28;20625;-56
2022/02/08 07:02:22;;;;;;;6.45;3.80;;;;;;;4.23;100.00;97724.06;4969729;28;20070;-52
2022/02/08 07:04:50;;;;;;;3.08;2.80;;;;;;;4.18;100.00;97719.06;4967395;28;20078;-52
2022/02/08 07:07:18;;;;;;;4.05;3.60;;;;;;;4.15;100.00;97713.16;4967740;28;20866;-53
2022/02/08 07:09:47;;;;;;;7.88;4.22;;;;;;;4.22;100.00;97711.94;4965912;28;20074;-52
2022/02/08 07:12:17;;;;;;;9.50;3.97;;;;;;;4.26;100.00;97721.31;4989449;28;20066;-53
2022/02/08 07:14:46;;;;;;;5.07;3.42;;;;;;;4.29;100.00;97723.75;4968390;28;20108;-56
2022/02/08 07:17:14;;;;;;;5.50;3.80;;;;;;;4.27;100.00;97736.06;4970090;28;20059;-55
2022/02/08 07:19:43;;;;;;;6.65;3.53;;;;;;;4.19;100.00;97725.13;4966589;28;20062;-54
2022/02/08 07:22:11;;;;;;;5.70;3.58;;;;;;;4.46;100.00;97736.84;4967024;28;20066;-51
2022/02/08 07:24:40;;;;;;;4.38;3.42;;;;;;;4.48;100.00;97734.16;4973073;28;20065;-54
2022/02/08 07:27:08;;;;;;;3.72;3.42;;;;;;;4.71;100.00;97738.22;4969714;28;20096;-55
2022/02/08 07:29:39;;;;;;;3.92;3.33;;;;;;;4.42;100.00;97735.31;4974266;28;20073;-54
2022/02/08 07:32:08;;;;;;;;;;;;;;;4.69;100.00;97738.31;4967940;28;20089;-54
2022/02/08 07:34:42;;;;;;;3.80;3.40;;;;;;;4.60;100.00;97730.94;4967005;28;20369;-56
2022/02/08 07:37:16;;;;;;;3.92;3.40;;;;;;;4.77;100.00;97743.16;4966666;28;20074;-52
2022/02/08 07:39:47;;;;;;;3.63;3.30;;;;;;;4.58;100.00;97732.78;4968189;28;20077;-55
2022/02/08 07:42:16;;;;;;;5.15;3.13;;;;;;;4.76;100.00;97747.53;4966638;28;20093;-55
2022/02/08 07:44:47;;;;;;;6.93;3.40;;;;;;;4.93;100.00;97735.41;4969750;28;20561;-56
2022/02/08 07:47:15;;;;;;;;;;;;;;;4.87;100.00;97749.63;4968987;28;20074;-53
2022/02/08 07:49:43;;;;;;;10.52;3.15;;;;;;;4.72;100.00;97743.41;4965669;28;19957;-51
2022/02/08 07:52:12;;;;;;;4.57;3.40;;;;;;;4.93;100.00;97749.31;4967052;28;20066;-54
2022/02/08 07:54:40;;;;;;;6.20;3.85;;;;;;;5.02;100.00;97749.75;4968034;28;20459;-51
2022/02/08 07:57:08;;;;;;;3.58;3.28;;;;;;;4.95;100.00;97749.22;4966728;28;20825;-54
2022/02/08 07:59:37;;;;;;;6.88;3.50;;;;;;;5.07;100.00;97751.22;4968737;28;20530;-52
2022/02/08 08:02:07;;;;;;;4.13;3.60;;;;;;;5.03;100.00;97738.41;4949198;28;20487;-50
2022/02/08 08:04:36;;;;;;;6.30;3.53;;;;;;;5.00;100.00;97742.00;4961370;28;20081;-56
2022/02/08 08:07:04;;;;;;;3.28;2.97;;;;;;;4.93;100.00;97741.47;4954355;28;20097;-47
2022/02/08 08:09:39;;;;;;;4.68;3.08;;;;;;;4.89;100.00;97747.78;4956427;28;20548;-52
2022/02/08 08:12:12;;;;;;;5.90;3.20;;;;;;;4.89;100.00;97728.66;4971169;28;20066;-51
2022/02/08 08:14:41;;;;;;;4.70;3.28;;;;;;;5.02;100.00;97736.69;4966663;28;20111;-55
2022/02/08 08:17:37;;;;;;;6.82;3.10;;;;;;;5.11;100.00;97747.50;4969300;28;20082;-50
2022/02/08 08:20:04;;;;;;;3.55;2.70;;;;;;;5.04;100.00;97743.53;4966680;28;20199;-53
2022/02/08 08:22:33;;;;;;;5.03;3.25;;;;;;;5.15;100.00;97741.19;4967584;28;20093;-56
2022/02/08 08:25:03;;;;;;;3.70;2.90;;;;;;;5.02;100.00;97739.28;4967135;28;20078;-50
2022/02/08 08:27:33;;;;;;;4.72;2.90;;;;;;;5.10;100.00;97717.06;4967497;28;20084;-51
2022/02/08 08:30:01;;;;;;;4.15;3.20;;;;;;;5.55;100.00;97739.13;4966070;28;20070;-53
2022/02/08 08:32:31;;;;;;;4.85;3.10;;;;;;;5.46;100.00;97750.91;4968903;28;20094;-53
2022/02/08 08:34:59;;;;;;;4.77;3.30;;;;;;;5.44;100.00;97734.47;4966262;28;20070;-55
2022/02/08 08:37:29;;;;;;;4.63;3.10;;;;;;;5.45;100.00;97732.69;4966431;28;20077;-54
2022/02/08 08:40:03;;;;;;;6.68;3.10;;;;;;;5.54;100.00;97739.19;4960234;28;20074;-51
2022/02/08 08:42:40;;;;;;;5.88;3.30;;;;;;;5.46;100.00;97743.06;4949131;28;20074;-55
2022/02/08 08:48:31;;;;;;;2.92;2.60;;;;;;;5.75;100.00;97738.03;4966362;28;20055;-53
2022/02/08 08:48:40;;;;;;;3.35;2.90;;;;;;;5.58;100.00;97727.66;4957640;28;20074;-51
2022/02/08 08:51:33;;;;;;;3.20;2.80;;;;;;;5.84;100.00;97732.28;4965241;28;20066;-55
2022/02/08 08:54:05;;;;;;;3.25;2.60;;;;;;;5.99;100.00;97745.50;4966172;28;20074;-49
2022/02/08 08:56:33;;;;;;;3.08;2.78;;;;;;;5.94;100.00;97735.28;4968121;28;20078;-51
2022/02/08 08:59:02;;;;;;;5.82;3.28;;;;;;;5.92;100.00;97739.75;4966711;28;20482;-53
2022/02/08 09:01:31;;;;;;;5.28;3.00;;;;;;;5.77;100.00;97725.69;4966369;28;20085;-56
2022/02/08 09:04:01;;;;;;;6.03;3.38;;;;;;;6.06;100.00;97733.78;4961852;28;20085;-56
2022/02/08 09:06:31;;;;;;;4.22;2.90;;;;;;;6.16;100.00;97733.19;4966387;28;20065;-54
2022/02/08 09:09:00;;;;;;;5.25;2.90;;;;;;;6.05;100.00;97721.59;4963519;28;20075;-54
2022/02/08 09:11:45;;;;;;;9.00;3.25;;;;;;;6.20;100.00;97714.69;4952398;28;20097;-56
2022/02/08 09:14:14;;;;;;;3.03;2.75;;;;;;;6.05;100.00;97725.06;4964700;28;20378;-54
2022/02/08 09:16:49;;;;;;;4.55;2.75;;;;;;;6.24;100.00;97729.28;4964956;28;20073;-57
2022/02/08 09:22:35;;;;;;;3.53;2.90;;;;;;;6.30;100.00;97718.47;4934081;28;20483;-48
2022/02/08 09:25:29;;;;;;;3.33;2.92;;;;;;;6.37;100.00;97711.94;4948974;28;20078;-55
2022/02/08 09:28:08;;;;;;;4.55;2.80;;;;;;;6.36;100.00;97737.28;4954799;28;20085;-52
2022/02/08 09:30:41;;;;;;;;;;;;;;;6.31;100.00;97725.38;4965726;28;20729;-56
2022/02/08 09:33:09;;;;;;;2.40;2.30;;;;;;;6.53;100.00;97712.72;4972014;28;19961;-53
2022/02/08 09:35:40;;;;;;;5.82;3.03;;;;;;;6.47;100.00;97736.69;4966803;28;20074;-54
2022/02/08 09:38:08;;;;;;;5.63;2.75;;;;;;;6.51;100.00;97738.19;4965355;28;20522;-54
2022/02/08 09:40:37;;;;;;;7.10;2.67;;;;;;;6.70;100.00;97730.09;4965341;28;20073;-55
2022/02/08 09:43:05;;;;;;;2.60;2.40;;;;;;;6.84;100.00;97729.28;4965006;28;20067;-56
2022/02/08 09:45:34;;;;;;;5.40;2.65;;;;;;;6.80;100.00;97728.63;4965961;28;20085;-57
2022/02/08 09:48:09;;;;;;;5.28;3.00;;;;;;;7.08;100.00;97737.50;4965687;28;20082;-54
2022/02/08 09:50:39;;;;;;;3.75;2.47;;;;;;;7.02;100.00;97740.47;4968003;28;20078;-55
2022/02/08 09:53:13;;;;;;;6.13;2.45;;;;;;;6.89;100.00;97738.59;4967572;28;20074;-52
2022/02/08 09:55:44;;;;;;;2.42;2.30;;;;;;;6.89;94.03;97741.22;4963895;28;20074;-54
2022/02/08 09:58:13;;;;;;;4.25;2.58;;;;;;;7.11;100.00;97735.53;4970879;28;20073;-55
2022/02/08 10:00:42;;;;;;;2.25;2.00;;;;;;;6.89;99.37;97737.75;4965331;28;20426;-56
2022/02/08 10:03:12;;;;;;;4.55;2.58;;;;;;;7.05;100.00;97738.50;4964152;28;20529;-57
2022/02/08 10:05:42;;;;;;;7.18;3.15;;;;;;;7.49;98.73;97737.59;4966674;28;20070;-56
2022/02/08 10:08:12;;;;;;;3.28;2.72;;;;;;;7.56;96.66;97738.06;4966712;28;21291;-53
2022/02/08 10:10:42;;;;;;;3.38;2.85;;;;;;;7.83;98.89;97731.09;4965015;28;20070;-55
2022/02/08 10:13:32;;;;;;;2.67;2.20;;;;;;;7.58;98.50;97723.94;4965401;28;20066;-53
2022/02/08 10:19:28;;;;;;;5.75;2.28;;;;;;;7.96;100.00;97743.47;4965554;28;20070;-50
2022/02/08 10:22:04;;;;;;;7.85;2.35;;;;;;;7.63;100.00;97728.88;4964614;28;20058;-49
2022/02/08 10:24:36;;;;;;;3.17;2.30;;;;;;;7.76;100.00;97723.72;4966013;28;20560;-51
2022/02/08 10:27:19;;;;;;;2.92;1.98;;;;;;;7.76;100.00;97719.31;4968096;28;20062;-54
2022/02/08 10:30:10;;;;;;;2.80;2.20;;;;;;;7.80;95.07;97712.06;4968571;28;20082;-51
2022/02/08 10:38:20;;;;;;;4.28;2.08;;;;;;;7.90;96.06;97700.06;4966690;28;20534;-57
2022/02/08 10:40:51;;;;;;;3.55;2.20;;;;;;;8.35;98.58;97689.31;4968187;28;20070;-55
2022/02/08 10:43:19;;;;;;;4.82;2.50;;;;;;;8.41;96.87;97694.19;4967469;28;20070;-54
2022/02/08 10:45:47;;;;;;;3.60;2.35;;;;;;;7.92;83.68;97682.44;4969377;28;20082;-52
2022/02/08 10:48:22;;;;;;;2.40;2.20;;;;;;;8.11;94.38;97694.38;4963695;28;20066;-58
2022/02/08 10:50:55;;;;;;;2.85;2.22;;;;;;;8.40;83.53;97680.22;4969206;28;20521;-54
2022/02/08 10:53:27;;;;;;;2.17;1.92;;;;;;;8.40;92.52;97685.47;4972988;28;20074;-55
2022/02/08 10:56:02;;;;;;;2.70;2.30;;;;;;;8.29;96.89;97687.91;4968619;28;20066;-52
2022/02/08 10:58:35;;;;;;;3.90;2.20;;;;;;;8.59;99.19;97692.97;4968915;28;20062;-55
2022/02/08 11:01:08;;;;;;;4.20;2.22;;;;;;;8.46;100.00;97686.84;4968053;28;20062;-55
2022/02/08 11:03:45;;;;;;;2.22;2.03;;;;;;;8.47;100.00;97683.28;4968210;28;20831;-54
2022/02/08 11:06:20;;;;;;;2.92;2.10;;;;;;;9.01;100.00;97683.13;4964817;28;20066;-50
2022/02/08 11:09:04;;;;;;;2.13;1.90;;;;;;;8.88;100.00;97685.78;4968399;28;20153;-54
2022/02/08 11:14:35;;;;;;;2.08;1.98;;;;;;;8.90;100.00;97685.66;4966745;28;20062;-57
2022/02/08 11:20:02;;;;;;;3.22;2.05;;;;;;;9.06;100.00;97670.53;4966880;28;20473;-53
2022/02/08 11:22:44;;;;;;;3.80;2.07;;;;;;;9.01;100.00;97652.41;4961578;28;20544;-55
2022/02/08 11:25:21;;;;;;;2.35;2.03;;;;;;;9.43;100.00;97658.28;4954928;28;20066;-50
2022/02/08 11:27:55;;;;;;;2.13;1.90;;;;;;;9.38;100.00;97656.91;4957265;28;20113;-55
2022/02/08 11:30:34;;;;;;;3.55;2.20;;;;;;;9.14;100.00;97651.56;4967031;28;20089;-49
2022/02/08 11:33:19;;;;;;;2.63;2.00;;;;;;;9.50;100.00;97649.00;4967868;28;20066;-49
2022/02/08 11:44:58;;;;;;;2.13;2.03;;;;;;;9.38;89.58;97641.94;4967572;28;20082;-49
2022/02/08 11:47:52;;;;;;;2.20;2.00;;;;;;;8.82;72.08;97612.53;4963870;28;20081;-52
2022/02/08 11:50:45;;;;;;;2.05;1.95;;;;;;;9.07;73.50;97652.94;4967299;28;20484;-53
2022/02/08 11:53:22;;;;;;;4.00;3.10;;;;;;;9.04;61.99;97643.47;4965196;28;20561;-54
2022/02/08 11:56:22;;;;;;;2.88;2.47;;;;;;;9.03;66.63;97636.53;4967458;28;20545;-55
2022/02/08 11:59:04;;;;;;;2.00;1.90;;;;;;;9.06;70.27;97631.06;4965697;28;20694;-53
2022/02/08 12:02:05;;;;;;;2.38;1.98;;;;;;;9.26;59.32;97629.66;4952444;28;20067;-54
2022/02/08 12:04:43;;;;;;;4.25;2.22;;;;;;;9.73;69.95;97631.53;4952533;28;20070;-55
2022/02/08 12:07:17;;;;;;;2.00;1.80;;;;;;;9.49;64.03;97613.06;4963126;28;20572;-56
2022/02/08 12:09:52;;;;;;;2.17;1.80;;;;;;;9.46;69.03;97630.88;4965913;28;20078;-48
2022/02/08 12:32:13;;;;;;;1.80;1.70;;;;;;;10.01;65.68;97615.50;4967622;28;20525;-57
2022/02/08 12:35:03;;;;;;;1.80;1.70;;;;;;;9.91;63.43;97620.59;4965708;28;20066;-51
2022/02/08 12:48:55;;;;;;;1.90;1.80;;;;;;;10.18;54.62;97607.19;4966322;28;20070;-52
2022/02/08 12:54:26;;;;;;;1.83;1.70;;;;;;;10.45;47.91;97599.91;4966892;28;20143;-58
2022/02/08 12:57:07;;;;;;;1.80;1.70;;;;;;;10.63;48.01;97595.03;4964090;28;20078;-59
2022/02/08 12:59:55;;;;;;;1.70;1.60;;;;;;;10.57;43.74;97590.22;4963931;28;20465;-47
2022/02/08 13:02:36;;;;;;;1.60;1.50;;;;;;;10.41;42.57;97587.91;4965237;28;22149;-56
2022/02/08 13:05:43;;;;;;;1.77;1.67;;;;;;;10.53;45.16;97596.69;4965692;28;20485;-52
2022/02/08 13:19:50;;;;;;;1.90;1.70;;;;;;;10.17;46.63;97584.44;4968560;28;20074;-50
2022/02/08 14:01:43;;;;;;;2.88;1.80;;;;;;;9.80;64.86;97583.69;4968177;28;20073;-51
2022/02/08 14:07:17;;;;;;;3.75;1.95;;;;;;;9.90;68.71;97579.41;4969934;28;20055;-47
2022/02/08 14:10:16;;;;;;;2.22;2.03;;;;;;;10.22;68.59;97588.44;4966760;28;20090;-53
2022/02/08 14:18:41;;;;;;;3.35;1.90;;;;;;;10.47;70.82;97578.69;4966242;28;20066;-54
2022/02/08 14:21:14;;;;;;;1.95;1.85;;;;;;;10.24;66.79;97577.75;4968649;28;20074;-54
2022/02/08 14:23:57;;;;;;;2.10;1.85;;;;;;;10.51;70.92;97569.59;4968844;28;20087;-56
2022/02/08 15:10:51;;;;;;;2.25;1.80;;;;;;;10.18;74.79;97565.03;4966171;28;20318;-47
2022/02/08 15:13:24;;;;;;;2.38;2.17;;;;;;;10.18;82.06;97573.78;4966742;28;20058;-49
2022/02/08 15:18:50;;;;;;;4.10;2.10;;;;;;;10.50;96.39;97581.09;4966436;28;20070;-48
2022/02/08 15:21:24;;;;;;;2.40;2.00;;;;;;;10.30;90.74;97581.78;4966285;28;20075;-55
2022/02/08 15:23:53;;;;;;;2.65;1.80;;;;;;;10.08;90.31;97579.84;4964286;28;20086;-50
2022/02/08 15:26:21;;;;;;;2.65;2.10;;;;;;;9.97;82.61;97589.38;4969885;28;20079;-51
2022/02/08 15:28:51;;;;;;;2.45;2.03;;;;;;;9.98;92.77;97580.53;4967638;28;20089;-53
2022/02/08 15:31:19;;;;;;;2.15;2.00;;;;;;;9.81;93.77;97574.84;4957332;28;20482;-54
2022/02/08 15:33:48;;;;;;;2.10;1.90;;;;;;;10.07;89.25;97567.63;4957888;28;20069;-55
2022/02/08 15:36:17;;;;;;;2.00;1.90;;;;;;;9.81;92.00;97580.13;4967533;28;20058;-50
2022/02/08 15:38:53;;;;;;;2.65;2.20;;;;;;;9.93;82.74;97573.91;4974116;28;20107;-53
2022/02/08 15:41:21;;;;;;;4.10;2.30;;;;;;;9.80;87.49;97578.41;4965806;28;20074;-52
2022/02/08 15:43:51;;;;;;;2.60;2.40;;;;;;;9.69;91.88;97581.81;4966744;28;20073;-52
2022/02/08 15:46:22;;;;;;;2.08;1.98;;;;;;;9.67;83.90;97575.81;4967768;28;20063;-48
2022/02/08 15:48:53;;;;;;;1.98;1.88;;;;;;;9.90;99.93;97572.34;4966534;28;20062;-54
2022/02/08 15:51:28;;;;;;;2.85;2.53;;;;;;;9.59;81.45;97581.66;4967640;28;20066;-51
2022/02/08 15:54:10;;;;;;;2.63;1.95;;;;;;;9.64;94.53;97573.44;4966666;28;20078;-53
2022/02/08 15:56:55;;;;;;;2.40;2.08;;;;;;;9.51;89.76;97574.31;4967381;28;20100;-52
2022/02/08 16:08:20;;;;;;;4.60;2.40;;;;;;;9.45;94.47;97597.59;4951746;28;20454;-50
2022/02/08 16:11:00;;;;;;;2.97;2.60;;;;;;;9.50;91.72;97593.69;4967119;28;20074;-54
2022/02/08 16:13:39;;;;;;;3.08;2.60;;;;;;;9.38;77.26;97593.72;4966682;28;20070;-49